sensor_id;sensor_type;location;lat;lon;timestamp;pressure;altitude;pressure_sealevel;temperature;humidity
5812;BME280;2932;52.400;9.558;2023-04-19T00:00:09;102275.91;;;14.34;43.96
5812;BME280;2932;52.400;9.558;2023-04-19T00:02:37;102278.34;;;14.36;43.97
5812;BME280;2932;52.400;9.558;2023-04-19T00:05:03;102282.91;;;14.41;43.92
5812;BME280;2932;52.400;9.558;2023-04-19T00:07:28;102278.31;;;14.53;44.37
5812;BME280;2932;52.400;9.558;2023-04-19T00:09:54;102269.31;;;14.48;44.63
5812;BME280;2932;52.400;9.558;2023-04-19T00:12:19;102275.56;;;14.36;44.52
5812;BME280;2932;52.400;9.558;2023-04-19T00:14:44;102267.25;;;14.19;44.25
5812;BME280;2932;52.400;9.558;2023-04-19T00:17:10;102262.84;;;14.00;44.13
5812;BME280;2932;52.400;9.558;2023-04-19T00:19:36;102263.03;;;13.87;44.52
5812;BME280;2932;52.400;9.558;2023-04-19T00:22:01;102267.94;;;13.90;44.18
5812;BME280;2932;52.400;9.558;2023-04-19T00:24:27;102263.84;;;13.70;43.58
5812;BME280;2932;52.400;9.558;2023-04-19T00:26:52;102262.38;;;13.98;43.41
5812;BME280;2932;52.400;9.558;2023-04-19T00:29:17;102269.88;;;14.15;43.07
5812;BME280;2932;52.400;9.558;2023-04-19T00:31:43;102271.34;;;14.04;43.23
5812;BME280;2932;52.400;9.558;2023-04-19T00:34:08;102273.13;;;14.26;42.67
5812;BME280;2932;52.400;9.558;2023-04-19T00:36:33;102267.69;;;14.38;42.60
5812;BME280;2932;52.400;9.558;2023-04-19T00:38:59;102267.91;;;14.16;43.03
5812;BME280;2932;52.400;9.558;2023-04-19T00:41:24;102262.50;;;14.19;43.16
5812;BME280;2932;52.400;9.558;2023-04-19T00:43:50;102267.78;;;13.95;43.57
5812;BME280;2932;52.400;9.558;2023-04-19T00:46:15;102273.66;;;13.76;43.75
5812;BME280;2932;52.400;9.558;2023-04-19T00:48:40;102275.78;;;13.71;43.50
5812;BME280;2932;52.400;9.558;2023-04-19T00:51:06;102276.94;;;13.69;43.93
5812;BME280;2932;52.400;9.558;2023-04-19T00:53:32;102270.56;;;13.95;43.73
5812;BME280;2932;52.400;9.558;2023-04-19T00:56:01;102277.09;;;13.99;43.83
5812;BME280;2932;52.400;9.558;2023-04-19T00:58:28;102274.47;;;13.77;44.52
5812;BME280;2932;52.400;9.558;2023-04-19T01:00:55;102279.06;;;13.47;44.40
5812;BME280;2932;52.400;9.558;2023-04-19T01:03:21;102279.38;;;13.45;44.81
5812;BME280;2932;52.400;9.558;2023-04-19T01:05:46;102277.81;;;13.13;45.08
5812;BME280;2932;52.400;9.558;2023-04-19T01:08:12;102282.78;;;13.33;44.74
5812;BME280;2932;52.400;9.558;2023-04-19T01:10:38;102283.59;;;13.34;45.35
5812;BME280;2932;52.400;9.558;2023-04-19T01:13:03;102280.81;;;13.34;44.99
5812;BME280;2932;52.400;9.558;2023-04-19T01:15:29;102283.59;;;13.34;45.51
5812;BME280;2932;52.400;9.558;2023-04-19T01:17:55;102282.44;;;13.26;45.64
5812;BME280;2932;52.400;9.558;2023-04-19T01:20:21;102278.84;;;13.17;45.82
5812;BME280;2932;52.400;9.558;2023-04-19T01:22:46;102278.97;;;13.12;45.78
5812;BME280;2932;52.400;9.558;2023-04-19T01:25:11;102283.63;;;12.94;46.17
5812;BME280;2932;52.400;9.558;2023-04-19T01:27:37;102287.25;;;13.03;46.13
5812;BME280;2932;52.400;9.558;2023-04-19T01:30:02;102278.78;;;13.09;46.31
5812;BME280;2932;52.400;9.558;2023-04-19T01:32:28;102279.22;;;12.93;46.51
5812;BME280;2932;52.400;9.558;2023-04-19T01:34:54;102287.06;;;12.91;46.47
5812;BME280;2932;52.400;9.558;2023-04-19T01:37:19;102282.78;;;12.85;47.15
5812;BME280;2932;52.400;9.558;2023-04-19T01:39:45;102284.59;;;12.90;46.95
5812;BME280;2932;52.400;9.558;2023-04-19T01:42:10;102288.00;;;12.78;47.02
5812;BME280;2932;52.400;9.558;2023-04-19T01:44:35;102292.38;;;12.71;46.98
5812;BME280;2932;52.400;9.558;2023-04-19T01:47:01;102284.03;;;12.40;47.83
5812;BME280;2932;52.400;9.558;2023-04-19T01:49:29;102287.53;;;12.54;47.51
5812;BME280;2932;52.400;9.558;2023-04-19T01:51:54;102287.59;;;12.62;47.32
5812;BME280;2932;52.400;9.558;2023-04-19T01:54:20;102288.69;;;12.53;47.51
5812;BME280;2932;52.400;9.558;2023-04-19T01:56:45;102290.94;;;12.51;47.74
5812;BME280;2932;52.400;9.558;2023-04-19T01:59:10;102286.13;;;12.65;47.67
5812;BME280;2932;52.400;9.558;2023-04-19T02:01:36;102288.44;;;12.72;47.54
5812;BME280;2932;52.400;9.558;2023-04-19T02:04:01;102287.50;;;12.76;47.45
5812;BME280;2932;52.400;9.558;2023-04-19T02:06:27;102287.63;;;12.71;47.24
5812;BME280;2932;52.400;9.558;2023-04-19T02:08:52;102283.16;;;12.61;47.47
5812;BME280;2932;52.400;9.558;2023-04-19T02:11:17;102285.84;;;12.75;47.49
5812;BME280;2932;52.400;9.558;2023-04-19T02:13:43;102273.44;;;12.81;47.42
5812;BME280;2932;52.400;9.558;2023-04-19T02:16:09;102274.94;;;12.79;47.36
5812;BME280;2932;52.400;9.558;2023-04-19T02:18:34;102277.72;;;12.79;47.49
5812;BME280;2932;52.400;9.558;2023-04-19T02:21:03;102276.38;;;12.76;47.59
5812;BME280;2932;52.400;9.558;2023-04-19T02:23:28;102273.75;;;12.80;47.72
5812;BME280;2932;52.400;9.558;2023-04-19T02:25:54;102284.19;;;12.65;47.62
5812;BME280;2932;52.400;9.558;2023-04-19T02:28:19;102276.34;;;12.67;47.88
5812;BME280;2932;52.400;9.558;2023-04-19T02:30:44;102277.81;;;12.65;47.96
5812;BME280;2932;52.400;9.558;2023-04-19T02:33:10;102289.91;;;12.69;48.13
5812;BME280;2932;52.400;9.558;2023-04-19T02:35:35;102288.28;;;12.68;48.21
5812;BME280;2932;52.400;9.558;2023-04-19T02:38:02;102286.94;;;12.65;48.27
5812;BME280;2932;52.400;9.558;2023-04-19T02:40:27;102289.03;;;12.60;48.35
5812;BME280;2932;52.400;9.558;2023-04-19T02:42:53;102292.69;;;12.38;48.69
5812;BME280;2932;52.400;9.558;2023-04-19T02:45:18;102288.94;;;12.43;48.86
5812;BME280;2932;52.400;9.558;2023-04-19T02:47:43;102295.63;;;12.42;48.87
5812;BME280;2932;52.400;9.558;2023-04-19T02:50:11;102294.66;;;12.38;49.02
5812;BME280;2932;52.400;9.558;2023-04-19T02:52:36;102285.84;;;12.44;48.78
5812;BME280;2932;52.400;9.558;2023-04-19T02:55:02;102295.47;;;12.38;49.02
5812;BME280;2932;52.400;9.558;2023-04-19T02:57:28;102293.25;;;12.26;49.55
5812;BME280;2932;52.400;9.558;2023-04-19T02:59:54;102293.72;;;12.20;49.43
5812;BME280;2932;52.400;9.558;2023-04-19T03:02:19;102294.34;;;12.17;49.77
5812;BME280;2932;52.400;9.558;2023-04-19T03:04:44;102291.31;;;12.27;49.66
5812;BME280;2932;52.400;9.558;2023-04-19T03:07:11;102289.84;;;12.29;49.23
5812;BME280;2932;52.400;9.558;2023-04-19T03:09:37;102287.22;;;12.24;49.39
5812;BME280;2932;52.400;9.558;2023-04-19T03:12:03;102289.47;;;12.22;49.50
5812;BME280;2932;52.400;9.558;2023-04-19T03:14:28;102281.78;;;12.19;49.65
5812;BME280;2932;52.400;9.558;2023-04-19T03:16:53;102290.09;;;12.19;49.43
5812;BME280;2932;52.400;9.558;2023-04-19T03:19:19;102285.19;;;12.16;49.67
5812;BME280;2932;52.400;9.558;2023-04-19T03:21:44;102280.00;;;12.01;49.89
5812;BME280;2932;52.400;9.558;2023-04-19T03:24:10;102284.94;;;11.82;50.20
5812;BME280;2932;52.400;9.558;2023-04-19T03:26:39;102280.03;;;11.79;50.07
5812;BME280;2932;52.400;9.558;2023-04-19T03:29:04;102281.75;;;11.75;50.14
5812;BME280;2932;52.400;9.558;2023-04-19T03:31:29;102282.78;;;11.79;50.56
5812;BME280;2932;52.400;9.558;2023-04-19T03:33:55;102277.81;;;11.89;50.23
5812;BME280;2932;52.400;9.558;2023-04-19T03:36:20;102283.50;;;11.84;50.25
5812;BME280;2932;52.400;9.558;2023-04-19T03:38:45;102269.31;;;11.86;50.31
5812;BME280;2932;52.400;9.558;2023-04-19T03:41:24;102269.84;;;11.74;50.05
5812;BME280;2932;52.400;9.558;2023-04-19T03:43:49;102272.00;;;11.77;50.55
5812;BME280;2932;52.400;9.558;2023-04-19T03:46:15;102276.19;;;11.75;50.82
5812;BME280;2932;52.400;9.558;2023-04-19T03:48:40;102275.69;;;11.73;50.89
5812;BME280;2932;52.400;9.558;2023-04-19T03:51:06;102269.13;;;11.82;50.94
5812;BME280;2932;52.400;9.558;2023-04-19T03:53:31;102273.97;;;11.77;50.95
5812;BME280;2932;52.400;9.558;2023-04-19T03:55:56;102274.78;;;11.77;50.73
5812;BME280;2932;52.400;9.558;2023-04-19T03:58:22;102273.41;;;11.52;51.33
5812;BME280;2932;52.400;9.558;2023-04-19T04:00:47;102270.78;;;11.69;51.31
5812;BME280;2932;52.400;9.558;2023-04-19T04:03:12;102279.50;;;11.63;51.39
5812;BME280;2932;52.400;9.558;2023-04-19T04:05:38;102277.38;;;11.60;51.61
5812;BME280;2932;52.400;9.558;2023-04-19T04:08:03;102273.66;;;11.64;51.48
5812;BME280;2932;52.400;9.558;2023-04-19T04:10:29;102278.69;;;11.62;51.50
5812;BME280;2932;52.400;9.558;2023-04-19T04:12:54;102277.03;;;11.75;51.57
5812;BME280;2932;52.400;9.558;2023-04-19T04:15:19;102277.19;;;11.56;51.49
5812;BME280;2932;52.400;9.558;2023-04-19T04:17:45;102278.84;;;11.57;51.67
5812;BME280;2932;52.400;9.558;2023-04-19T04:20:10;102274.44;;;11.56;51.52
5812;BME280;2932;52.400;9.558;2023-04-19T04:22:41;102278.97;;;11.39;52.19
5812;BME280;2932;52.400;9.558;2023-04-19T04:25:07;102279.78;;;11.53;51.97
5812;BME280;2932;52.400;9.558;2023-04-19T04:27:33;102279.66;;;11.58;51.84
5812;BME280;2932;52.400;9.558;2023-04-19T04:29:58;102277.72;;;11.45;52.20
5812;BME280;2932;52.400;9.558;2023-04-19T04:32:23;102280.41;;;11.36;51.94
5812;BME280;2932;52.400;9.558;2023-04-19T04:34:49;102279.38;;;11.32;52.19
5812;BME280;2932;52.400;9.558;2023-04-19T04:37:14;102272.13;;;11.22;52.26
5812;BME280;2932;52.400;9.558;2023-04-19T04:39:40;102277.34;;;11.38;52.44
5812;BME280;2932;52.400;9.558;2023-04-19T04:42:05;102277.63;;;11.36;52.54
5812;BME280;2932;52.400;9.558;2023-04-19T04:44:34;102282.25;;;11.41;52.52
5812;BME280;2932;52.400;9.558;2023-04-19T04:47:00;102278.56;;;11.31;52.78
5812;BME280;2932;52.400;9.558;2023-04-19T04:49:25;102285.84;;;11.41;52.68
5812;BME280;2932;52.400;9.558;2023-04-19T04:51:51;102277.53;;;11.27;52.88
5812;BME280;2932;52.400;9.558;2023-04-19T04:54:16;102281.25;;;11.23;53.06
5812;BME280;2932;52.400;9.558;2023-04-19T04:56:41;102285.66;;;11.38;53.07
5812;BME280;2932;52.400;9.558;2023-04-19T04:59:07;102280.81;;;11.43;52.84
5812;BME280;2932;52.400;9.558;2023-04-19T05:01:32;102282.03;;;11.51;52.79
5812;BME280;2932;52.400;9.558;2023-04-19T05:03:58;102285.00;;;11.54;52.77
5812;BME280;2932;52.400;9.558;2023-04-19T05:06:23;102284.19;;;11.54;52.89
5812;BME280;2932;52.400;9.558;2023-04-19T05:08:48;102277.97;;;11.70;52.82
5812;BME280;2932;52.400;9.558;2023-04-19T05:11:14;102282.69;;;11.70;52.60
5812;BME280;2932;52.400;9.558;2023-04-19T05:13:39;102288.53;;;11.68;52.37
5812;BME280;2932;52.400;9.558;2023-04-19T05:16:05;102284.94;;;11.68;52.46
5812;BME280;2932;52.400;9.558;2023-04-19T05:18:30;102285.97;;;11.72;52.86
5812;BME280;2932;52.400;9.558;2023-04-19T05:20:56;102291.06;;;11.56;52.92
5812;BME280;2932;52.400;9.558;2023-04-19T05:23:22;102288.78;;;11.58;52.99
5812;BME280;2932;52.400;9.558;2023-04-19T05:25:47;102288.72;;;11.72;52.95
5812;BME280;2932;52.400;9.558;2023-04-19T05:28:12;102289.97;;;11.66;53.01
5812;BME280;2932;52.400;9.558;2023-04-19T05:30:37;102288.84;;;11.81;53.00
5812;BME280;2932;52.400;9.558;2023-04-19T05:33:03;102290.25;;;11.92;52.76
5812;BME280;2932;52.400;9.558;2023-04-19T05:35:28;102286.06;;;11.81;52.79
5812;BME280;2932;52.400;9.558;2023-04-19T05:37:54;102279.50;;;11.77;52.87
5812;BME280;2932;52.400;9.558;2023-04-19T05:40:20;102279.28;;;11.87;52.75
5812;BME280;2932;52.400;9.558;2023-04-19T05:42:46;102282.56;;;11.75;52.79
5812;BME280;2932;52.400;9.558;2023-04-19T05:45:12;102283.09;;;11.77;53.07
5812;BME280;2932;52.400;9.558;2023-04-19T05:47:39;102277.44;;;11.82;52.88
5812;BME280;2932;52.400;9.558;2023-04-19T05:50:05;102272.03;;;11.99;52.86
5812;BME280;2932;52.400;9.558;2023-04-19T05:52:31;102277.41;;;11.96;52.90
5812;BME280;2932;52.400;9.558;2023-04-19T05:54:57;102276.25;;;11.97;52.72
5812;BME280;2932;52.400;9.558;2023-04-19T05:57:22;102275.06;;;11.76;53.01
5812;BME280;2932;52.400;9.558;2023-04-19T05:59:48;102276.63;;;11.82;52.79
5812;BME280;2932;52.400;9.558;2023-04-19T06:02:13;102276.09;;;12.02;52.68
5812;BME280;2932;52.400;9.558;2023-04-19T06:04:39;102276.75;;;11.99;52.44
5812;BME280;2932;52.400;9.558;2023-04-19T06:07:04;102285.41;;;11.97;52.66
5812;BME280;2932;52.400;9.558;2023-04-19T06:09:29;102274.84;;;12.08;52.41
5812;BME280;2932;52.400;9.558;2023-04-19T06:11:55;102280.41;;;12.08;52.11
5812;BME280;2932;52.400;9.558;2023-04-19T06:14:21;102283.16;;;12.30;52.35
5812;BME280;2932;52.400;9.558;2023-04-19T06:16:46;102281.59;;;12.38;52.05
5812;BME280;2932;52.400;9.558;2023-04-19T06:19:12;102273.84;;;12.57;51.62
5812;BME280;2932;52.400;9.558;2023-04-19T06:21:37;102266.78;;;12.51;51.71
5812;BME280;2932;52.400;9.558;2023-04-19T06:24:05;102270.03;;;12.84;51.63
5812;BME280;2932;52.400;9.558;2023-04-19T06:26:30;102267.06;;;12.72;52.02
5812;BME280;2932;52.400;9.558;2023-04-19T06:28:55;102262.53;;;12.93;52.11
5812;BME280;2932;52.400;9.558;2023-04-19T06:31:21;102262.78;;;13.14;51.93
5812;BME280;2932;52.400;9.558;2023-04-19T06:33:46;102259.72;;;13.33;51.82
5812;BME280;2932;52.400;9.558;2023-04-19T06:36:12;102263.50;;;13.46;51.79
5812;BME280;2932;52.400;9.558;2023-04-19T06:38:37;102259.75;;;13.67;50.92
5812;BME280;2932;52.400;9.558;2023-04-19T06:41:03;102263.19;;;13.64;50.19
5812;BME280;2932;52.400;9.558;2023-04-19T06:43:28;102260.56;;;13.77;50.47
5812;BME280;2932;52.400;9.558;2023-04-19T06:46:02;102260.41;;;13.90;49.97
5812;BME280;2932;52.400;9.558;2023-04-19T06:48:29;102254.31;;;14.06;49.62
5812;BME280;2932;52.400;9.558;2023-04-19T06:50:55;102248.06;;;14.26;49.10
5812;BME280;2932;52.400;9.558;2023-04-19T06:53:21;102246.94;;;14.01;49.07
5812;BME280;2932;52.400;9.558;2023-04-19T06:55:46;102250.22;;;14.12;49.04
5812;BME280;2932;52.400;9.558;2023-04-19T06:58:11;102246.75;;;14.32;49.59
5812;BME280;2932;52.400;9.558;2023-04-19T07:00:37;102250.63;;;14.40;48.82
5812;BME280;2932;52.400;9.558;2023-04-19T07:03:02;102241.50;;;14.30;49.12
5812;BME280;2932;52.400;9.558;2023-04-19T07:05:29;102238.03;;;14.42;49.16
5812;BME280;2932;52.400;9.558;2023-04-19T07:07:54;102244.25;;;14.48;48.94
5812;BME280;2932;52.400;9.558;2023-04-19T07:10:20;102235.91;;;14.48;48.51
5812;BME280;2932;52.400;9.558;2023-04-19T07:12:45;102237.84;;;14.56;48.67
5812;BME280;2932;52.400;9.558;2023-04-19T07:15:11;102230.94;;;14.62;48.06
5812;BME280;2932;52.400;9.558;2023-04-19T07:17:36;102235.06;;;14.56;47.69
5812;BME280;2932;52.400;9.558;2023-04-19T07:20:02;102220.31;;;14.55;46.68
5812;BME280;2932;52.400;9.558;2023-04-19T07:22:29;102221.88;;;14.27;46.61
5812;BME280;2932;52.400;9.558;2023-04-19T07:24:55;102218.69;;;14.46;46.50
5812;BME280;2932;52.400;9.558;2023-04-19T07:27:20;102224.56;;;14.53;46.17
5812;BME280;2932;52.400;9.558;2023-04-19T07:29:45;102225.34;;;14.71;46.27
5812;BME280;2932;52.400;9.558;2023-04-19T07:32:11;102218.31;;;14.64;46.11
5812;BME280;2932;52.400;9.558;2023-04-19T07:34:38;102215.31;;;14.78;46.06
5812;BME280;2932;52.400;9.558;2023-04-19T07:37:05;102210.28;;;14.92;45.94
5812;BME280;2932;52.400;9.558;2023-04-19T07:39:30;102205.19;;;14.94;44.25
5812;BME280;2932;52.400;9.558;2023-04-19T07:41:55;102204.81;;;15.05;44.93
5812;BME280;2932;52.400;9.558;2023-04-19T07:44:21;102203.31;;;15.07;45.24
5812;BME280;2932;52.400;9.558;2023-04-19T07:46:46;102201.63;;;15.35;45.40
5812;BME280;2932;52.400;9.558;2023-04-19T07:49:12;102196.59;;;15.50;44.39
5812;BME280;2932;52.400;9.558;2023-04-19T07:51:37;102188.16;;;15.38;43.54
5812;BME280;2932;52.400;9.558;2023-04-19T07:54:03;102188.44;;;15.45;43.58
5812;BME280;2932;52.400;9.558;2023-04-19T07:56:28;102190.28;;;15.61;43.12
5812;BME280;2932;52.400;9.558;2023-04-19T07:58:54;102190.13;;;15.79;43.30
5812;BME280;2932;52.400;9.558;2023-04-19T08:01:19;102187.66;;;15.77;43.19
5812;BME280;2932;52.400;9.558;2023-04-19T08:03:45;102185.16;;;15.84;43.08
5812;BME280;2932;52.400;9.558;2023-04-19T08:06:11;102176.47;;;15.98;42.72
5812;BME280;2932;52.400;9.558;2023-04-19T08:08:37;102185.88;;;16.06;42.69
5812;BME280;2932;52.400;9.558;2023-04-19T08:11:03;102166.97;;;16.23;42.43
5812;BME280;2932;52.400;9.558;2023-04-19T08:13:29;102176.69;;;15.93;42.15
5812;BME280;2932;52.400;9.558;2023-04-19T08:15:54;102171.78;;;16.02;42.27
5812;BME280;2932;52.400;9.558;2023-04-19T08:18:20;102170.75;;;16.07;41.87
5812;BME280;2932;52.400;9.558;2023-04-19T08:20:46;102181.00;;;16.02;42.67
5812;BME280;2932;52.400;9.558;2023-04-19T08:23:11;102174.03;;;16.09;40.93
5812;BME280;2932;52.400;9.558;2023-04-19T08:25:37;102170.06;;;16.10;41.87
5812;BME280;2932;52.400;9.558;2023-04-19T08:28:03;102156.63;;;16.24;41.61
5812;BME280;2932;52.400;9.558;2023-04-19T08:30:28;102169.75;;;16.23;41.35
5812;BME280;2932;52.400;9.558;2023-04-19T08:32:54;102164.38;;;16.06;41.60
5812;BME280;2932;52.400;9.558;2023-04-19T08:35:20;102149.19;;;16.28;41.38
5812;BME280;2932;52.400;9.558;2023-04-19T08:37:45;102160.25;;;16.37;39.68
5812;BME280;2932;52.400;9.558;2023-04-19T08:40:12;102154.16;;;16.22;37.83
5812;BME280;2932;52.400;9.558;2023-04-19T08:42:38;102143.81;;;16.23;39.10
5812;BME280;2932;52.400;9.558;2023-04-19T08:45:04;102151.38;;;16.22;37.83
5812;BME280;2932;52.400;9.558;2023-04-19T08:47:32;102149.41;;;16.35;38.61
5812;BME280;2932;52.400;9.558;2023-04-19T08:49:59;102142.31;;;16.38;37.85
5812;BME280;2932;52.400;9.558;2023-04-19T08:52:26;102153.72;;;16.32;37.39
5812;BME280;2932;52.400;9.558;2023-04-19T08:54:53;102145.91;;;16.62;38.04
5812;BME280;2932;52.400;9.558;2023-04-19T08:57:19;102142.41;;;16.90;37.63
5812;BME280;2932;52.400;9.558;2023-04-19T08:59:45;102136.94;;;16.93;36.63
5812;BME280;2932;52.400;9.558;2023-04-19T09:02:13;102127.03;;;16.84;36.79
5812;BME280;2932;52.400;9.558;2023-04-19T09:04:40;102130.31;;;16.86;36.40
5812;BME280;2932;52.400;9.558;2023-04-19T09:07:05;102128.84;;;16.64;36.20
5812;BME280;2932;52.400;9.558;2023-04-19T09:09:32;102136.25;;;16.48;36.54
5812;BME280;2932;52.400;9.558;2023-04-19T09:11:58;102124.59;;;16.82;37.23
5812;BME280;2932;52.400;9.558;2023-04-19T09:14:27;102126.38;;;16.75;36.15
5812;BME280;2932;52.400;9.558;2023-04-19T09:16:53;102124.72;;;16.61;35.59
5812;BME280;2932;52.400;9.558;2023-04-19T09:19:19;102117.03;;;16.58;36.55
5812;BME280;2932;52.400;9.558;2023-04-19T09:21:45;102105.81;;;16.95;36.70
5812;BME280;2932;52.400;9.558;2023-04-19T09:24:10;102107.88;;;17.10;36.05
5812;BME280;2932;52.400;9.558;2023-04-19T09:26:36;102110.69;;;17.38;36.31
5812;BME280;2932;52.400;9.558;2023-04-19T09:31:29;102101.00;;;17.63;35.21
5812;BME280;2932;52.400;9.558;2023-04-19T09:34:11;102093.75;;;17.90;36.57
5812;BME280;2932;52.400;9.558;2023-04-19T09:36:37;102090.41;;;17.85;36.00
5812;BME280;2932;52.400;9.558;2023-04-19T09:39:05;102086.50;;;17.74;35.52
5812;BME280;2932;52.400;9.558;2023-04-19T09:41:30;102076.69;;;18.11;35.31
5812;BME280;2932;52.400;9.558;2023-04-19T09:44:09;102063.97;;;17.54;34.24
5812;BME280;2932;52.400;9.558;2023-04-19T09:46:36;102073.91;;;17.24;34.57
5812;BME280;2932;52.400;9.558;2023-04-19T09:51:52;102060.63;;;17.49;35.18
5812;BME280;2932;52.400;9.558;2023-04-19T09:54:19;102052.50;;;17.59;35.00
5812;BME280;2932;52.400;9.558;2023-04-19T09:56:45;102043.16;;;17.67;35.33
5812;BME280;2932;52.400;9.558;2023-04-19T09:59:11;102050.47;;;18.04;36.20
5812;BME280;2932;52.400;9.558;2023-04-19T10:01:48;102037.38;;;18.23;36.56
5812;BME280;2932;52.400;9.558;2023-04-19T10:04:16;102033.28;;;18.37;34.84
5812;BME280;2932;52.400;9.558;2023-04-19T10:06:49;102038.56;;;18.42;34.85
5812;BME280;2932;52.400;9.558;2023-04-19T10:09:17;102047.75;;;18.74;35.11
5812;BME280;2932;52.400;9.558;2023-04-19T10:11:48;102034.31;;;18.63;34.63
5812;BME280;2932;52.400;9.558;2023-04-19T10:14:15;102031.09;;;19.00;34.77
5812;BME280;2932;52.400;9.558;2023-04-19T10:16:41;102016.50;;;19.33;35.05
5812;BME280;2932;52.400;9.558;2023-04-19T10:19:11;102013.38;;;19.57;35.51
5812;BME280;2932;52.400;9.558;2023-04-19T10:21:37;102008.19;;;19.82;35.16
5812;BME280;2932;52.400;9.558;2023-04-19T10:24:04;101993.78;;;20.10;33.96
5812;BME280;2932;52.400;9.558;2023-04-19T10:27:11;101998.91;;;20.05;33.77
5812;BME280;2932;52.400;9.558;2023-04-19T10:29:59;101979.63;;;20.03;32.88
5812;BME280;2932;52.400;9.558;2023-04-19T10:32:29;101988.38;;;20.24;33.47
5812;BME280;2932;52.400;9.558;2023-04-19T10:35:00;101997.09;;;19.89;33.02
5812;BME280;2932;52.400;9.558;2023-04-19T10:37:25;101986.72;;;20.20;33.12
5812;BME280;2932;52.400;9.558;2023-04-19T10:39:51;101983.69;;;20.32;32.92
5812;BME280;2932;52.400;9.558;2023-04-19T10:42:16;101974.53;;;20.65;35.08
5812;BME280;2932;52.400;9.558;2023-04-19T10:47:46;101960.09;;;21.04;32.39
5812;BME280;2932;52.400;9.558;2023-04-19T10:50:11;101953.47;;;21.22;32.21
5812;BME280;2932;52.400;9.558;2023-04-19T10:52:37;101953.59;;;21.33;31.70
5812;BME280;2932;52.400;9.558;2023-04-19T10:55:03;101945.19;;;21.37;32.28
5812;BME280;2932;52.400;9.558;2023-04-19T10:58:05;101940.91;;;21.53;31.59
5812;BME280;2932;52.400;9.558;2023-04-19T11:00:31;101932.19;;;21.69;31.40
5812;BME280;2932;52.400;9.558;2023-04-19T11:03:49;101929.31;;;21.58;31.08
5812;BME280;2932;52.400;9.558;2023-04-19T11:06:15;101929.38;;;21.25;30.59
5812;BME280;2932;52.400;9.558;2023-04-19T11:08:43;101927.34;;;21.22;30.71
5812;BME280;2932;52.400;9.558;2023-04-19T11:11:09;101935.97;;;20.66;29.92
5812;BME280;2932;52.400;9.558;2023-04-19T11:13:36;101914.53;;;20.91;30.95
5812;BME280;2932;52.400;9.558;2023-04-19T11:16:07;101915.03;;;21.00;31.19
5812;BME280;2932;52.400;9.558;2023-04-19T11:18:32;101924.59;;;21.29;31.38
5812;BME280;2932;52.400;9.558;2023-04-19T11:20:57;101917.75;;;21.78;31.17
5812;BME280;2932;52.400;9.558;2023-04-19T11:23:24;101916.13;;;21.73;30.65
5812;BME280;2932;52.400;9.558;2023-04-19T11:25:50;101913.69;;;21.72;30.08
5812;BME280;2932;52.400;9.558;2023-04-19T11:28:17;101890.53;;;21.96;30.50
5812;BME280;2932;52.400;9.558;2023-04-19T11:30:43;101890.84;;;21.84;30.26
5812;BME280;2932;52.400;9.558;2023-04-19T11:33:11;101893.88;;;22.19;30.17
5812;BME280;2932;52.400;9.558;2023-04-19T11:35:37;101889.09;;;22.27;31.08
5812;BME280;2932;52.400;9.558;2023-04-19T11:38:02;101880.06;;;21.96;30.95
5812;BME280;2932;52.400;9.558;2023-04-19T11:40:30;101875.78;;;21.62;30.77
5812;BME280;2932;52.400;9.558;2023-04-19T11:43:04;101867.47;;;21.80;31.75
5812;BME280;2932;52.400;9.558;2023-04-19T11:45:37;101878.03;;;21.93;30.33
5812;BME280;2932;52.400;9.558;2023-04-19T11:48:03;101878.56;;;22.17;30.93
5812;BME280;2932;52.400;9.558;2023-04-19T11:55:41;101865.41;;;22.39;30.96
5812;BME280;2932;52.400;9.558;2023-04-19T11:58:06;101868.97;;;22.28;30.97
5812;BME280;2932;52.400;9.558;2023-04-19T12:00:34;101874.59;;;22.25;30.56
5812;BME280;2932;52.400;9.558;2023-04-19T12:03:00;101867.06;;;22.65;30.57
5812;BME280;2932;52.400;9.558;2023-04-19T12:05:26;101863.94;;;22.87;30.50
5812;BME280;2932;52.400;9.558;2023-04-19T12:07:59;101867.72;;;22.22;30.58
5812;BME280;2932;52.400;9.558;2023-04-19T12:10:25;101864.56;;;22.42;30.72
5812;BME280;2932;52.400;9.558;2023-04-19T12:12:50;101868.09;;;22.17;30.54
5812;BME280;2932;52.400;9.558;2023-04-19T12:15:15;101874.28;;;22.51;29.66
5812;BME280;2932;52.400;9.558;2023-04-19T12:18:00;101867.84;;;22.58;30.20
5812;BME280;2932;52.400;9.558;2023-04-19T12:20:33;101876.38;;;22.76;30.09
5812;BME280;2932;52.400;9.558;2023-04-19T12:22:59;101861.50;;;22.89;29.40
5812;BME280;2932;52.400;9.558;2023-04-19T12:25:32;101851.44;;;23.24;29.68
5812;BME280;2932;52.400;9.558;2023-04-19T12:27:59;101850.66;;;23.45;29.54
5812;BME280;2932;52.400;9.558;2023-04-19T12:30:25;101834.09;;;23.29;29.74
5812;BME280;2932;52.400;9.558;2023-04-19T12:32:51;101838.53;;;23.23;30.77
5812;BME280;2932;52.400;9.558;2023-04-19T12:35:20;101840.94;;;23.64;31.02
5812;BME280;2932;52.400;9.558;2023-04-19T12:37:46;101829.25;;;23.69;30.18
5812;BME280;2932;52.400;9.558;2023-04-19T12:40:12;101855.50;;;23.16;30.56
5812;BME280;2932;52.400;9.558;2023-04-19T12:42:38;101834.91;;;23.33;30.13
5812;BME280;2932;52.400;9.558;2023-04-19T12:45:04;101835.72;;;23.05;30.53
5812;BME280;2932;52.400;9.558;2023-04-19T12:47:29;101836.28;;;22.17;30.87
5812;BME280;2932;52.400;9.558;2023-04-19T12:49:54;101828.63;;;22.14;31.20
5812;BME280;2932;52.400;9.558;2023-04-19T12:52:21;101832.84;;;22.73;31.14
5812;BME280;2932;52.400;9.558;2023-04-19T12:54:47;101822.41;;;23.20;31.03
5812;BME280;2932;52.400;9.558;2023-04-19T12:57:15;101811.91;;;23.27;30.65
5812;BME280;2932;52.400;9.558;2023-04-19T12:59:40;101821.06;;;22.36;30.97
5812;BME280;2932;52.400;9.558;2023-04-19T13:02:06;101827.09;;;21.58;31.63
5812;BME280;2932;52.400;9.558;2023-04-19T13:04:31;101826.44;;;21.27;32.53
5812;BME280;2932;52.400;9.558;2023-04-19T13:06:56;101821.31;;;20.92;32.73
5812;BME280;2932;52.400;9.558;2023-04-19T13:09:22;101818.81;;;20.84;32.12
5812;BME280;2932;52.400;9.558;2023-04-19T13:11:47;101816.97;;;20.61;32.40
5812;BME280;2932;52.400;9.558;2023-04-19T13:14:12;101804.19;;;21.12;33.33
5812;BME280;2932;52.400;9.558;2023-04-19T13:16:38;101809.00;;;21.11;32.63
5812;BME280;2932;52.400;9.558;2023-04-19T13:19:04;101806.69;;;21.79;32.91